Time;durP1;ratioP1;P1;durP2;ratioP2;P2;SDS_P1;SDS_P2;PMS_P1;PMS_P2;Temp;Humidity;BMP_temperature;BMP_pressure;BME280_temperature;BME280_humidity;BME280_pressure;Samples;Min_cycle;Max_cycle;Signal;HPM_P1;HPM_P2
2022/07/05 00:00:01;;;;;;;6.47;3.78;;;;;;;14.57;79.39;102075.63;5074011;28;20032;-70
2022/07/05 00:02:26;;;;;;;5.72;3.50;;;;;;;14.50;79.93;102068.75;5065153;28;20032;-70
2022/07/05 00:04:51;;;;;;;5.82;3.75;;;;;;;14.47;80.20;102071.44;5067702;28;20378;-70
2022/07/05 00:07:18;;;;;;;6.10;4.10;;;;;;;14.43;80.04;102070.63;5074120;28;20048;-70
2022/07/05 00:09:48;;;;;;;4.18;3.78;;;;;;;14.39;80.15;102071.59;5073431;28;20024;-70
2022/07/05 00:12:14;;;;;;;6.97;3.90;;;;;;;14.34;80.19;102068.19;5073002;28;20524;-70
2022/07/05 00:14:40;;;;;;;3.95;3.63;;;;;;;14.25;81.30;102069.22;5073605;28;20028;-70
2022/07/05 00:17:06;;;;;;;7.85;4.13;;;;;;;14.17;81.54;102065.91;5073397;28;20397;-70
2022/07/05 00:19:31;;;;;;;5.97;3.55;;;;;;;14.12;82.18;102065.09;5073137;28;20032;-70
2022/07/05 00:21:57;;;;;;;6.65;4.00;;;;;;;14.01;82.30;102065.31;5073182;28;20036;-70
2022/07/05 00:24:22;;;;;;;5.88;3.90;;;;;;;14.04;82.80;102067.03;5073055;28;20537;-70
2022/07/05 00:26:48;;;;;;;6.10;4.72;;;;;;;14.01;82.45;102064.44;5073093;28;20021;-70
2022/07/05 00:29:13;;;;;;;6.72;4.03;;;;;;;13.88;82.56;102071.66;5073756;28;20019;-70
2022/07/05 00:31:38;;;;;;;7.20;3.90;;;;;;;13.76;83.49;102062.25;5072693;28;20039;-70
2022/07/05 00:34:03;;;;;;;5.55;4.53;;;;;;;13.71;84.24;102061.47;5073296;28;20021;-70
2022/07/05 00:36:29;;;;;;;7.45;4.47;;;;;;;13.61;84.16;102062.53;5073604;28;20024;-70
2022/07/05 00:38:54;;;;;;;5.55;4.35;;;;;;;13.57;84.75;102059.09;5072101;28;20020;-70
2022/07/05 00:41:19;;;;;;;6.40;4.00;;;;;;;13.50;85.01;102061.81;5073263;28;20060;-70
2022/07/05 00:43:56;;;;;;;7.13;4.88;;;;;;;13.41;84.66;102070.72;5072952;28;20503;-70
2022/07/05 00:46:22;;;;;;;7.72;4.75;;;;;;;13.31;85.85;102062.13;5072742;28;20025;-70
2022/07/05 00:48:47;;;;;;;7.20;4.63;;;;;;;13.23;86.04;102061.34;5072809;28;20203;-70
2022/07/05 00:51:13;;;;;;;6.43;4.57;;;;;;;13.21;86.21;102065.75;5073001;28;20479;-70
2022/07/05 00:53:39;;;;;;;7.00;5.07;;;;;;;13.16;86.32;102056.22;5072515;28;20111;-70
2022/07/05 00:56:05;;;;;;;5.40;4.70;;;;;;;13.19;86.46;102064.91;5072489;28;20074;-69
2022/07/05 00:58:32;;;;;;;7.68;5.40;;;;;;;13.22;85.99;102061.38;5072847;28;20057;-70
2022/07/05 01:00:57;;;;;;;7.05;4.97;;;;;;;13.21;85.99;102065.75;5072032;28;20029;-70
2022/07/05 01:03:23;;;;;;;6.70;5.15;;;;;;;13.12;86.06;102060.66;5058866;28;20387;-70
2022/07/05 01:05:49;;;;;;;6.18;5.22;;;;;;;12.99;86.59;102065.19;5072367;28;20126;-70
2022/07/05 01:08:15;;;;;;;7.20;5.53;;;;;;;12.93;87.22;102069.66;5071862;28;20020;-70
2022/07/05 01:10:41;;;;;;;7.18;5.45;;;;;;;12.90;87.59;102070.53;5072754;28;20036;-70
2022/07/05 01:13:08;;;;;;;7.82;5.95;;;;;;;12.94;87.40;102063.50;5072423;28;20545;-69
2022/07/05 01:15:34;;;;;;;6.95;5.57;;;;;;;13.00;87.15;102068.66;5071634;28;20043;-70
2022/07/05 01:18:00;;;;;;;8.23;6.43;;;;;;;12.95;87.19;102073.97;5072462;28;20120;-70
2022/07/05 01:20:25;;;;;;;9.45;6.32;;;;;;;12.85;87.91;102068.00;5072564;28;20099;-70
2022/07/05 01:22:53;;;;;;;8.65;6.20;;;;;;;12.78;87.75;102073.31;5071247;28;20438;-70
2022/07/05 01:25:24;;;;;;;9.27;5.70;;;;;;;12.75;88.09;102069.00;5072526;28;20054;-70
2022/07/05 01:27:50;;;;;;;10.23;6.10;;;;;;;12.78;88.25;102071.56;5064893;28;20029;-70
2022/07/05 01:30:16;;;;;;;9.57;6.03;;;;;;;12.73;88.40;102069.91;5052496;28;20036;-70
2022/07/05 01:32:42;;;;;;;8.95;5.85;;;;;;;12.66;88.45;102066.50;5055525;28;20025;-70
2022/07/05 01:35:09;;;;;;;9.65;6.40;;;;;;;12.58;89.33;102076.19;5067841;28;20461;-70
2022/07/05 01:37:35;;;;;;;8.43;5.82;;;;;;;12.52;89.86;102077.13;5057805;28;20503;-70
2022/07/05 01:40:04;;;;;;;9.20;6.30;;;;;;;12.48;89.78;102071.94;5071925;28;20476;-70
2022/07/05 01:42:29;;;;;;;10.77;5.57;;;;;;;12.47;89.48;102078.06;5071500;28;20484;-70
2022/07/05 01:44:55;;;;;;;10.27;6.80;;;;;;;12.45;89.41;102069.38;5065838;28;20029;-70
2022/07/05 01:47:20;;;;;;;13.07;6.55;;;;;;;12.43;89.63;102068.53;5063904;28;20024;-70
2022/07/05 01:49:49;;;;;;;12.85;6.55;;;;;;;12.48;90.14;102071.94;5070992;28;20019;-70
2022/07/05 01:52:16;;;;;;;8.75;6.22;;;;;;;12.50;89.80;102078.91;5071995;28;20130;-70
2022/07/05 01:54:43;;;;;;;8.77;5.63;;;;;;;12.53;89.55;102067.53;5071848;28;20032;-70
2022/07/05 01:57:09;;;;;;;8.60;6.45;;;;;;;12.50;89.34;102067.59;5071235;28;20040;-70
2022/07/05 01:59:35;;;;;;;9.77;6.07;;;;;;;12.49;89.27;102071.94;5071698;28;20111;-70
2022/07/05 02:02:01;;;;;;;11.23;7.00;;;;;;;12.49;89.34;102058.88;5065638;28;20477;-70
2022/07/05 02:04:28;;;;;;;10.93;6.15;;;;;;;12.50;89.99;102067.59;5063255;28;20024;-70
2022/07/05 02:06:53;;;;;;;7.57;5.68;;;;;;;12.41;90.18;102061.56;5071018;28;20059;-70
2022/07/05 02:09:19;;;;;;;9.98;6.72;;;;;;;12.38;90.57;102065.97;5071740;28;20051;-70
2022/07/05 02:11:44;;;;;;;10.07;6.75;;;;;;;12.40;90.70;102057.22;5070495;28;20115;-70
2022/07/05 02:14:10;;;;;;;10.50;6.15;;;;;;;12.44;91.04;102057.19;5072004;28;20029;-70
2022/07/05 02:16:36;;;;;;;17.88;6.97;;;;;;;12.43;90.22;102052.84;5071579;28;20036;-70
2022/07/05 02:19:01;;;;;;;12.35;7.03;;;;;;;12.36;90.42;102068.59;5056731;28;20377;-70
2022/07/05 02:21:27;;;;;;;10.15;6.60;;;;;;;12.30;91.10;102058.22;5071963;28;20050;-70
2022/07/05 02:23:53;;;;;;;14.00;6.75;;;;;;;12.21;91.14;102055.69;5071120;28;20060;-70
2022/07/05 02:26:19;;;;;;;17.00;6.70;;;;;;;12.22;91.78;102067.00;5071485;28;20031;-70
2022/07/05 02:28:44;;;;;;;11.18;6.82;;;;;;;12.19;91.79;102060.06;5071093;28;20439;-70
2022/07/05 02:31:09;;;;;;;15.18;6.93;;;;;;;12.19;91.77;102060.06;5071015;28;20029;-70
2022/07/05 02:33:35;;;;;;;17.17;7.03;;;;;;;12.17;91.98;102059.22;5071405;28;20017;-70
2022/07/05 02:36:12;;;;;;;24.65;7.50;;;;;;;12.21;91.59;102068.78;5066575;28;20028;-70
2022/07/05 02:38:38;;;;;;;14.57;8.00;;;;;;;12.14;91.96;102059.25;5063213;28;20087;-70
2022/07/05 02:41:08;;;;;;;27.20;9.23;;;;;;;12.11;91.75;102061.91;5071389;28;20519;-70
2022/07/05 02:43:34;;;;;;;17.70;8.00;;;;;;;12.21;91.99;102067.91;5071271;28;20024;-70
2022/07/05 02:46:00;;;;;;;18.15;7.78;;;;;;;12.26;91.32;102071.31;5070404;28;20107;-70
2022/07/05 02:48:25;;;;;;;25.55;8.18;;;;;;;12.18;91.22;102074.03;5071472;28;20881;-70
2022/07/05 02:50:51;;;;;;;18.85;7.50;;;;;;;12.12;91.37;102067.09;5070986;28;20059;-70
2022/07/05 02:53:16;;;;;;;22.35;8.10;;;;;;;12.05;91.61;102073.28;5070867;28;20461;-70
2022/07/05 02:55:41;;;;;;;24.50;7.95;;;;;;;12.02;92.03;102072.44;5071111;28;20021;-70
2022/07/05 02:58:06;;;;;;;17.52;8.00;;;;;;;11.99;91.98;102080.31;5070828;28;20051;-70
2022/07/05 03:00:32;;;;;;;16.30;8.15;;;;;;;11.95;92.17;102079.47;5070734;28;20062;-70
2022/07/05 03:02:57;;;;;;;17.48;7.80;;;;;;;11.94;92.32;102077.75;5070934;28;20056;-70
2022/07/05 03:05:24;;;;;;;17.83;7.68;;;;;;;11.93;92.20;102076.91;5071522;28;20074;-70
2022/07/05 03:07:49;;;;;;;18.50;7.68;;;;;;;11.95;91.98;102080.34;5070109;28;20104;-70
2022/07/05 03:10:14;;;;;;;16.40;7.82;;;;;;;11.95;92.32;102072.50;5071556;28;20008;-70
2022/07/05 03:12:39;;;;;;;18.88;8.75;;;;;;;12.02;93.23;102082.91;5071018;28;20415;-70
2022/07/05 03:15:06;;;;;;;16.88;7.97;;;;;;;12.10;93.43;102084.56;5070294;28;20033;-70
2022/07/05 03:17:31;;;;;;;19.50;9.15;;;;;;;12.16;93.38;102083.63;5071193;28;20078;-70
2022/07/05 03:19:56;;;;;;;16.65;8.48;;;;;;;12.23;93.10;102092.25;5073249;28;20389;-70
2022/07/05 03:22:22;;;;;;;21.48;9.45;;;;;;;12.22;92.92;102093.16;5074291;28;20448;-70
2022/07/05 03:24:47;;;;;;;14.27;8.90;;;;;;;12.15;92.44;102093.22;5074328;28;20027;-70
2022/07/05 03:27:12;;;;;;;15.40;8.38;;;;;;;12.11;92.69;102101.97;5074659;28;20023;-70
2022/07/05 03:29:37;;;;;;;19.13;8.98;;;;;;;12.05;93.03;102098.56;5074148;28;20075;-70
2022/07/05 03:32:03;;;;;;;11.98;8.68;;;;;;;11.95;92.88;102092.56;5074079;28;20131;-70
2022/07/05 03:34:28;;;;;;;12.40;9.52;;;;;;;11.98;93.28;102102.13;5074113;28;20028;-70
2022/07/05 03:36:53;;;;;;;10.93;8.77;;;;;;;11.98;93.07;102102.97;5062046;28;20025;-70
2022/07/05 03:39:19;;;;;;;11.88;8.50;;;;;;;11.90;93.05;102100.44;5072659;28;20032;-70
2022/07/05 03:41:44;;;;;;;11.90;8.95;;;;;;;11.81;93.49;102100.47;5073332;28;20457;-70
2022/07/05 03:44:09;;;;;;;11.38;9.13;;;;;;;11.80;93.84;102103.97;5074424;28;20099;-70
2022/07/05 03:46:35;;;;;;;12.52;9.60;;;;;;;11.84;93.54;102100.50;5074021;28;20057;-70
2022/07/05 03:49:00;;;;;;;12.73;9.55;;;;;;;11.89;94.05;102098.69;5073644;28;20035;-70
2022/07/05 03:51:25;;;;;;;11.95;9.13;;;;;;;12.02;93.67;102101.19;5074092;28;20123;-69
2022/07/05 03:53:51;;;;;;;13.10;9.35;;;;;;;12.03;93.70;102108.16;5073955;28;20110;-69
2022/07/05 03:56:19;;;;;;;11.10;9.55;;;;;;;12.00;93.66;102114.28;5073505;28;20013;-70
2022/07/05 03:58:49;;;;;;;10.57;9.48;;;;;;;12.10;94.08;102109.84;5073536;28;20068;-70
2022/07/05 04:01:15;;;;;;;11.50;9.10;;;;;;;12.22;93.14;102114.06;5073999;28;20120;-69
2022/07/05 04:03:40;;;;;;;12.02;9.68;;;;;;;12.31;92.88;102120.06;5073360;28;20108;-70
2022/07/05 04:06:06;;;;;;;13.55;9.77;;;;;;;12.32;92.70;102121.81;5073662;28;20082;-70
2022/07/05 04:08:31;;;;;;;13.52;9.43;;;;;;;12.34;92.85;102114.81;5074292;28;20040;-70
2022/07/05 04:10:57;;;;;;;13.25;9.60;;;;;;;12.41;92.39;102118.22;5072777;28;20108;-70
2022/07/05 04:13:22;;;;;;;12.23;9.65;;;;;;;12.54;92.50;102124.19;5073900;28;20016;-70
2022/07/05 04:15:47;;;;;;;16.73;9.75;;;;;;;12.64;92.55;102123.22;5073311;28;20112;-70
2022/07/05 04:18:12;;;;;;;11.63;9.00;;;;;;;12.71;93.10;102127.47;5072972;28;20029;-70
2022/07/05 04:20:38;;;;;;;15.32;9.98;;;;;;;12.72;92.23;102124.00;5073807;28;20050;-69
2022/07/05 04:23:04;;;;;;;12.02;9.80;;;;;;;12.81;91.45;102118.63;5073340;28;20028;-70
2022/07/05 04:25:29;;;;;;;11.38;9.75;;;;;;;12.87;92.05;102122.94;5073290;28;20074;-70
2022/07/05 04:27:54;;;;;;;11.50;9.55;;;;;;;12.92;92.51;102120.28;5073229;28;20380;-70
2022/07/05 04:30:22;;;;;;;12.57;9.43;;;;;;;12.98;93.19;102123.69;5072586;28;20031;-69
2022/07/05 04:32:47;;;;;;;12.20;10.20;;;;;;;12.99;91.54;102117.53;5072530;28;20032;-69
2022/07/05 04:35:13;;;;;;;11.30;9.70;;;;;;;13.08;91.32;102124.41;5073393;28;20111;-70
2022/07/05 04:37:39;;;;;;;14.80;10.27;;;;;;;13.12;91.55;102123.47;5058465;28;20028;-70
2022/07/05 04:40:07;;;;;;;12.20;9.95;;;;;;;13.15;91.97;102112.97;5073207;28;20020;-70
2022/07/05 04:42:32;;;;;;;13.13;10.80;;;;;;;13.19;92.26;102122.50;5072993;28;20028;-70
2022/07/05 04:44:58;;;;;;;14.88;10.93;;;;;;;13.30;91.95;102119.75;5072331;28;20055;-70
2022/07/05 04:47:25;;;;;;;12.63;10.32;;;;;;;13.42;91.07;102124.81;5073345;28;20021;-69
2022/07/05 04:49:50;;;;;;;11.95;9.30;;;;;;;13.50;91.80;102115.09;5072622;28;20052;-70
2022/07/05 04:52:15;;;;;;;17.80;10.77;;;;;;;13.57;92.27;102116.75;5072357;28;20124;-69
2022/07/05 04:54:41;;;;;;;12.50;9.82;;;;;;;13.67;91.56;102117.47;5072807;28;20035;-70
2022/07/05 04:57:06;;;;;;;16.35;9.88;;;;;;;13.73;91.58;102113.84;5072696;28;20110;-70
2022/07/05 04:59:31;;;;;;;13.57;10.73;;;;;;;13.76;90.28;102112.03;5072124;28;20476;-70
2022/07/05 05:01:57;;;;;;;12.48;10.13;;;;;;;13.82;91.48;102119.81;5072370;28;20025;-70
2022/07/05 05:04:22;;;;;;;12.63;9.90;;;;;;;13.85;90.38;102110.19;5073057;28;20028;-70
2022/07/05 05:06:47;;;;;;;12.88;10.68;;;;;;;13.97;89.76;102121.31;5071764;28;20016;-70
2022/07/05 05:09:13;;;;;;;12.23;10.10;;;;;;;14.07;89.71;102124.66;5073019;28;20055;-70
2022/07/05 05:11:38;;;;;;;12.80;10.20;;;;;;;14.16;89.54;102115.75;5072372;28;20523;-70
2022/07/05 05:14:03;;;;;;;13.18;10.82;;;;;;;14.21;88.89;102119.16;5071765;28;20052;-70
2022/07/05 05:16:29;;;;;;;14.38;10.77;;;;;;;14.24;86.62;102122.59;5072775;28;20028;-70
2022/07/05 05:18:55;;;;;;;14.30;11.30;;;;;;;14.37;87.21;102124.97;5072364;28;20396;-69
2022/07/05 05:21:20;;;;;;;14.07;10.68;;;;;;;14.47;87.17;102126.53;5072047;28;20078;-70
2022/07/05 05:23:46;;;;;;;14.07;10.98;;;;;;;14.55;87.15;102129.03;5072008;28;20025;-70
2022/07/05 05:26:11;;;;;;;14.27;10.40;;;;;;;14.60;85.96;102130.69;5072579;28;20448;-70
2022/07/05 05:28:37;;;;;;;12.80;10.63;;;;;;;14.72;85.77;102127.81;5071198;28;20032;-70
2022/07/05 05:31:02;;;;;;;14.73;12.05;;;;;;;14.82;85.53;102130.25;5072291;28;20025;-70
2022/07/05 05:33:27;;;;;;;15.85;11.57;;;;;;;14.95;84.77;102131.72;5072431;28;20052;-70
2022/07/05 05:35:53;;;;;;;14.60;11.45;;;;;;;15.05;84.19;102135.88;5067446;28;20465;-70
2022/07/05 05:38:18;;;;;;;15.30;11.32;;;;;;;15.09;84.18;102140.16;5062114;28;20357;-70
2022/07/05 05:40:46;;;;;;;19.65;12.65;;;;;;;15.19;84.40;102138.22;5071588;28;20435;-70
2022/07/05 05:43:11;;;;;;;15.10;12.00;;;;;;;15.28;82.49;102143.25;5071511;28;20033;-70
2022/07/05 05:45:37;;;;;;;15.88;11.65;;;;;;;15.39;82.01;102145.63;5071983;28;20024;-70
2022/07/05 05:48:02;;;;;;;15.57;10.93;;;;;;;15.49;81.64;102148.94;5071170;28;20040;-70
2022/07/05 05:50:30;;;;;;;13.75;11.40;;;;;;;15.56;81.92;102148.72;5072241;28;20091;-70
2022/07/05 05:52:56;;;;;;;16.83;12.27;;;;;;;15.57;80.73;102144.38;5071485;28;20074;-70
2022/07/05 05:55:23;;;;;;;15.07;11.82;;;;;;;15.61;80.27;102146.88;5071364;28;20017;-70
2022/07/05 05:57:48;;;;;;;15.10;11.90;;;;;;;15.73;80.78;102152.75;5071015;28;20127;-70
2022/07/05 06:00:15;;;;;;;14.32;11.48;;;;;;;15.84;80.70;102156.88;5071957;28;20084;-70
2022/07/05 06:02:41;;;;;;;15.65;12.95;;;;;;;15.94;79.49;102162.75;5071146;28;20039;-70
2022/07/05 06:05:07;;;;;;;17.05;11.30;;;;;;;16.03;79.80;102164.31;5071906;28;20020;-70
2022/07/05 06:07:52;;;;;;;15.43;12.52;;;;;;;16.10;78.89;102165.88;5071810;28;20020;-70
2022/07/05 06:10:25;;;;;;;15.20;11.68;;;;;;;16.16;79.78;102160.47;5071020;28;20514;-70
2022/07/05 06:12:52;;;;;;;17.13;13.45;;;;;;;16.20;80.22;102161.25;5071568;28;20077;-70
2022/07/05 06:15:18;;;;;;;20.83;13.95;;;;;;;16.28;78.98;102164.53;5072081;28;20016;-70
2022/07/05 06:17:43;;;;;;;16.88;13.57;;;;;;;16.30;79.33;102168.00;5070775;28;20372;-70
2022/07/05 06:20:11;;;;;;;19.52;14.65;;;;;;;16.22;79.44;102160.31;5071911;28;20020;-70
2022/07/05 06:22:37;;;;;;;18.63;14.27;;;;;;;16.25;79.06;102164.59;5071547;28;20052;-70
2022/07/05 06:25:03;;;;;;;18.10;14.95;;;;;;;16.32;77.14;102166.19;5070541;28;20067;-69
2022/07/05 06:27:29;;;;;;;19.92;13.68;;;;;;;16.42;77.13;102167.69;5071947;28;20020;-70
2022/07/05 06:29:54;;;;;;;17.25;13.90;;;;;;;16.54;76.22;102167.31;5071200;28;20070;-70
2022/07/05 06:32:19;;;;;;;15.20;12.65;;;;;;;16.71;77.75;102169.50;5070924;28;20089;-70
2022/07/05 06:34:44;;;;;;;15.52;12.60;;;;;;;16.80;77.46;102174.53;5071168;28;20021;-70
2022/07/05 06:37:10;;;;;;;13.38;11.85;;;;;;;16.88;77.57;102182.22;5056454;28;20036;-70
2022/07/05 06:39:35;;;;;;;14.48;12.38;;;;;;;16.97;75.53;102181.09;5071237;28;20024;-70
2022/07/05 06:42:00;;;;;;;14.50;11.85;;;;;;;17.04;73.82;102169.47;5071453;28;20035;-70
2022/07/05 06:44:26;;;;;;;14.55;11.45;;;;;;;17.07;73.88;102172.88;5070839;28;20410;-70
2022/07/05 06:46:51;;;;;;;14.68;10.80;;;;;;;17.15;74.80;102180.56;5071119;28;20078;-70
2022/07/05 06:49:16;;;;;;;13.95;10.40;;;;;;;17.14;73.21;102177.97;5071488;28;20511;-70
2022/07/05 06:51:41;;;;;;;18.08;11.70;;;;;;;17.08;73.87;102179.88;5070445;28;20025;-70
2022/07/05 06:54:07;;;;;;;14.68;11.15;;;;;;;17.05;72.57;102185.22;5072507;28;20503;-70
2022/07/05 06:56:32;;;;;;;17.92;11.73;;;;;;;16.95;73.85;102188.19;5075313;28;20017;-70
2022/07/05 06:58:57;;;;;;;13.30;10.60;;;;;;;16.79;73.58;102187.75;5074572;28;20107;-69
2022/07/05 07:01:22;;;;;;;14.40;10.52;;;;;;;16.56;76.41;102186.59;5075140;28;20427;-75
2022/07/05 07:03:48;;;;;;;17.98;11.20;;;;;;;16.41;76.83;102183.50;5074849;28;20028;-76
2022/07/05 07:06:14;;;;;;;14.80;10.60;;;;;;;16.48;78.91;102182.41;5071774;28;20032;-75
2022/07/05 07:11:23;;;;;;;;;;;;;;;17.32;76.63;102187.94;5074225;28;20094;-75
2022/07/05 07:13:48;;;;;;;13.70;10.60;;;;;;;17.76;75.53;102183.97;5073918;28;19920;-75
2022/07/05 07:16:13;;;;;;;15.57;11.52;;;;;;;17.98;72.66;102173.59;5071255;28;20082;-75
2022/07/05 07:18:39;;;;;;;14.95;10.77;;;;;;;18.25;73.97;102182.34;5074497;28;20020;-75
2022/07/05 07:21:05;;;;;;;13.63;9.48;;;;;;;18.45;71.58;102175.50;5073924;28;20087;-76
2022/07/05 07:23:30;;;;;;;14.07;9.35;;;;;;;18.67;72.65;102180.88;5073067;28;20027;-75
2022/07/05 07:25:55;;;;;;;12.15;8.73;;;;;;;18.86;72.92;102184.59;5074459;28;20021;-75
2022/07/05 07:28:21;;;;;;;11.75;8.40;;;;;;;19.02;71.26;102184.03;5073985;28;20021;-76
2022/07/05 07:30:46;;;;;;;13.63;8.73;;;;;;;19.20;70.68;102187.78;5072897;28;21991;-75
2022/07/05 07:33:11;;;;;;;16.33;9.25;;;;;;;19.21;70.01;102190.34;5074744;28;20020;-75
2022/07/05 07:35:36;;;;;;;13.68;9.20;;;;;;;19.25;69.79;102185.81;5071909;28;20516;-75
2022/07/05 07:38:02;;;;;;;12.98;8.52;;;;;;;19.36;71.92;102195.06;5068812;28;20025;-75
2022/07/05 07:40:27;;;;;;;13.77;8.55;;;;;;;19.45;69.58;102196.47;5072544;28;20032;-75
2022/07/05 07:42:52;;;;;;;16.88;8.40;;;;;;;19.45;70.14;102193.81;5072488;28;20028;-75
2022/07/05 07:45:18;;;;;;;12.68;7.97;;;;;;;19.49;70.10;102199.84;5065740;28;20392;-75
2022/07/05 07:47:44;;;;;;;11.73;8.18;;;;;;;19.57;69.92;102198.63;5073176;28;20063;-75
2022/07/05 07:50:10;;;;;;;14.80;8.63;;;;;;;19.59;70.10;102194.16;5074408;28;20047;-75
2022/07/05 07:52:36;;;;;;;14.38;8.30;;;;;;;19.68;68.51;102194.72;5073445;28;20469;-75
2022/07/05 07:55:02;;;;;;;14.55;7.65;;;;;;;19.76;70.14;102197.94;5073167;28;20028;-75
2022/07/05 07:57:27;;;;;;;12.63;8.20;;;;;;;19.79;69.64;102200.44;5074228;28;20158;-75
2022/07/05 07:59:53;;;;;;;13.27;8.32;;;;;;;19.94;68.69;102201.59;5073656;28;20033;-75
2022/07/05 08:02:21;;;;;;;12.25;7.35;;;;;;;20.06;70.57;102198.44;5072626;28;20025;-75
2022/07/05 08:04:47;;;;;;;17.70;8.50;;;;;;;20.23;68.56;102197.72;5073099;28;20025;-75
2022/07/05 08:07:12;;;;;;;12.80;8.23;;;;;;;20.31;67.97;102200.94;5073652;28;20034;-76
2022/07/05 08:09:37;;;;;;;16.17;9.38;;;;;;;20.39;66.39;102197.94;5072891;28;20029;-76
2022/07/05 08:12:03;;;;;;;13.98;7.93;;;;;;;20.44;67.82;102195.97;5073878;28;20047;-76
2022/07/05 08:14:28;;;;;;;13.15;8.30;;;;;;;20.61;67.31;102197.91;5073051;28;20033;-77
2022/07/05 08:16:53;;;;;;;17.88;8.40;;;;;;;20.71;66.74;102202.72;5072484;28;20025;-77
2022/07/05 08:22:04;;;;;;;15.30;9.68;;;;;;;20.84;66.84;102204.84;5073849;28;20120;-76
2022/07/05 08:24:30;;;;;;;14.50;10.38;;;;;;;20.89;65.48;102200.16;5072902;28;20465;-76
2022/07/05 08:26:55;;;;;;;15.68;11.65;;;;;;;21.08;63.20;102206.34;5064811;28;20032;-76
2022/07/05 08:29:20;;;;;;;19.48;12.05;;;;;;;21.04;64.21;102204.78;5066525;28;20029;-76
2022/07/05 08:31:49;;;;;;;14.23;10.73;;;;;;;21.08;63.84;102216.97;5070008;28;20452;-75
2022/07/05 08:34:15;;;;;;;14.90;10.02;;;;;;;21.18;62.88;102210.28;5073362;28;20095;-76
2022/07/05 08:36:41;;;;;;;13.35;9.25;;;;;;;21.17;65.71;102211.25;5063413;28;20052;-75
2022/07/05 08:39:08;;;;;;;20.35;10.25;;;;;;;21.20;64.92;102196.97;5069275;28;20047;-75
2022/07/05 08:41:36;;;;;;;16.13;9.80;;;;;;;21.33;62.77;102203.44;5062974;28;20112;-70
2022/07/05 08:44:03;;;;;;;13.88;8.77;;;;;;;21.40;65.51;102193.41;5067123;28;20024;-70
2022/07/05 08:46:30;;;;;;;14.93;9.13;;;;;;;21.49;62.93;102193.00;5073290;28;20025;-70
2022/07/05 08:48:59;;;;;;;12.32;8.43;;;;;;;21.44;64.07;102200.28;5072998;28;20032;-70
2022/07/05 08:51:27;;;;;;;16.45;9.02;;;;;;;21.15;62.07;102196.31;5072543;28;20032;-70
2022/07/05 08:53:53;;;;;;;15.95;7.72;;;;;;;20.92;64.78;102200.88;5072626;28;20119;-70
2022/07/05 08:56:19;;;;;;;15.93;8.25;;;;;;;20.69;66.83;102196.63;5072955;28;20448;-70
2022/07/05 08:58:45;;;;;;;16.30;8.38;;;;;;;20.68;66.05;102197.56;5071709;28;20135;-70
2022/07/05 09:01:12;;;;;;;11.05;8.32;;;;;;;21.01;66.24;102197.81;5072913;28;20046;-70
2022/07/05 09:03:51;;;;;;;13.15;8.15;;;;;;;21.44;64.47;102190.53;5072687;28;20077;-70
2022/07/05 09:06:27;;;;;;;16.23;8.23;;;;;;;21.75;62.01;102191.72;5072038;28;20104;-70
2022/07/05 09:08:55;;;;;;;12.23;6.68;;;;;;;22.02;60.65;102196.59;5072495;28;20043;-70
2022/07/05 09:11:28;;;;;;;13.13;6.90;;;;;;;22.26;59.80;102192.72;5072708;28;20060;-70
2022/07/05 09:13:53;;;;;;;;;;;;;;;22.48;57.40;102205.75;5072224;28;20044;-70
2022/07/05 09:16:19;;;;;;;12.60;7.80;;;;;;;21.98;56.91;102202.06;5072550;28;20015;-70
2022/07/05 09:18:50;;;;;;;10.82;8.13;;;;;;;21.90;58.59;102206.03;5072329;28;20109;-71
2022/07/05 09:21:21;;;;;;;10.68;6.47;;;;;;;21.86;56.84;102196.50;5071991;28;20400;-70
2022/07/05 09:24:19;;;;;;;13.82;5.70;;;;;;;21.72;60.59;102208.66;5072203;28;20043;-70
2022/07/05 09:26:49;;;;;;;8.98;5.70;;;;;;;21.24;59.71;102204.72;5052261;28;20066;-70
2022/07/05 09:29:20;;;;;;;10.48;5.00;;;;;;;20.87;60.59;102200.25;5072516;28;20048;-70
2022/07/05 09:31:52;;;;;;;7.00;4.30;;;;;;;20.68;60.00;102210.81;5071790;28;20029;-70
2022/07/05 09:34:19;;;;;;;6.97;4.95;;;;;;;20.85;60.73;102202.09;5071794;28;20024;-70
2022/07/05 09:37:01;;;;;;;6.38;4.47;;;;;;;20.94;61.51;102209.63;5060951;28;20025;-70
2022/07/05 09:39:30;;;;;;;7.07;3.53;;;;;;;21.32;60.37;102207.03;5071570;28;20028;-71
2022/07/05 09:42:10;;;;;;;5.95;3.10;;;;;;;21.51;56.36;102196.41;5071181;28;20361;-70
2022/07/05 09:44:38;;;;;;;7.47;4.07;;;;;;;21.94;54.19;102191.66;5071817;28;20032;-70
2022/07/05 09:47:09;;;;;;;8.23;6.68;;;;;;;22.40;52.38;102192.88;5071078;28;20047;-71
2022/07/05 09:49:35;;;;;;;8.30;5.50;;;;;;;22.57;55.30;102184.03;5071718;28;20464;-70
2022/07/05 09:52:00;;;;;;;9.60;5.35;;;;;;;22.60;52.85;102183.84;5071875;28;20115;-70
2022/07/05 09:54:25;;;;;;;9.02;5.22;;;;;;;22.71;47.81;102185.09;5071405;28;20115;-70
2022/07/05 09:56:50;;;;;;;6.18;4.18;;;;;;;22.46;52.38;102181.03;5071427;28;20063;-70
2022/07/05 09:59:19;;;;;;;4.80;3.70;;;;;;;22.20;51.78;102185.06;5071882;28;20102;-70
2022/07/05 10:01:45;;;;;;;9.68;3.78;;;;;;;21.85;53.18;102179.72;5070619;28;20036;-70
2022/07/05 10:04:10;;;;;;;5.10;3.08;;;;;;;21.55;58.16;102182.09;5072187;28;20025;-70
2022/07/05 10:06:36;;;;;;;7.40;2.92;;;;;;;21.56;55.61;102183.78;5071530;28;20024;-70
2022/07/05 10:09:01;;;;;;;4.57;2.97;;;;;;;21.56;54.51;102183.78;5071039;28;20047;-70
2022/07/05 10:11:27;;;;;;;5.13;3.05;;;;;;;21.48;55.37;102175.31;5071807;28;20380;-70
2022/07/05 10:13:53;;;;;;;5.30;3.58;;;;;;;21.62;53.35;102182.66;5071380;28;20033;-70
2022/07/05 10:16:22;;;;;;;7.05;3.95;;;;;;;21.56;54.08;102183.78;5070981;28;20031;-70
2022/07/05 10:18:54;;;;;;;6.40;3.70;;;;;;;21.42;55.56;102194.22;5071312;28;20480;-70
2022/07/05 10:21:19;;;;;;;5.82;3.55;;;;;;;21.22;58.42;102195.97;5071931;28;20047;-70
2022/07/05 10:23:51;;;;;;;8.30;4.28;;;;;;;21.13;56.97;102200.84;5070484;28;20508;-70
2022/07/05 10:26:16;;;;;;;6.28;4.28;;;;;;;21.21;58.43;102199.53;5071801;28;20064;-70
2022/07/05 10:28:47;;;;;;;7.30;4.15;;;;;;;21.40;57.19;102193.41;5070582;28;20048;-70
2022/07/05 10:31:14;;;;;;;7.35;4.70;;;;;;;21.67;57.35;102197.38;5070844;28;20067;-70
2022/07/05 10:33:40;;;;;;;6.65;4.70;;;;;;;22.05;55.07;102197.28;5071230;28;20484;-70
2022/07/05 10:36:10;;;;;;;8.13;3.90;;;;;;;22.24;49.99;102194.59;5065938;28;20033;-70
2022/07/05 10:38:38;;;;;;;4.57;2.83;;;;;;;22.38;51.28;102196.53;5062836;28;20074;-70
2022/07/05 10:41:07;;;;;;;7.13;3.30;;;;;;;22.79;51.67;102186.41;5071269;28;20362;-70
2022/07/05 10:43:32;;;;;;;4.85;3.40;;;;;;;22.72;50.36;102184.97;5071064;28;20123;-71
2022/07/05 10:45:58;;;;;;;7.15;2.70;;;;;;;22.62;52.32;102181.09;5071403;28;20104;-70
2022/07/05 10:48:25;;;;;;;5.75;2.83;;;;;;;22.56;53.34;102190.28;5071552;28;20020;-70
2022/07/05 10:50:56;;;;;;;5.53;2.85;;;;;;;22.79;49.72;102181.09;5070122;28;20021;-71
2022/07/05 10:53:22;;;;;;;8.00;3.20;;;;;;;23.28;48.26;102177.53;5071399;28;20025;-71
2022/07/05 10:55:54;;;;;;;5.22;2.85;;;;;;;23.66;46.18;102186.03;5070861;28;20041;-70
2022/07/05 10:58:24;;;;;;;7.57;2.83;;;;;;;23.77;43.76;102182.75;5070720;28;20208;-70
2022/07/05 11:01:11;;;;;;;5.78;2.65;;;;;;;23.82;48.47;102180.72;5070844;28;20468;-70
2022/07/05 11:03:47;;;;;;;11.25;3.08;;;;;;;24.17;49.82;102186.63;5058987;28;20049;-70
2022/07/05 11:06:22;;;;;;;6.70;2.60;;;;;;;24.43;47.19;102184.25;5070342;28;20082;-70
2022/07/05 11:08:56;;;;;;;5.90;2.50;;;;;;;24.45;44.08;102188.50;5071148;28;20024;-70
2022/07/05 11:11:32;;;;;;;3.22;2.40;;;;;;;23.77;45.33;102188.09;5071328;28;20036;-70
2022/07/05 11:13:59;;;;;;;3.25;2.15;;;;;;;23.26;46.87;102193.59;5071182;28;20035;-71
2022/07/05 11:16:34;;;;;;;3.72;2.00;;;;;;;22.98;49.91;102193.41;5071143;28;20028;-70
2022/07/05 11:19:07;;;;;;;4.10;2.00;;;;;;;22.89;49.97;102195.59;5070627;28;20074;-71
2022/07/05 11:21:34;;;;;;;3.67;2.10;;;;;;;22.77;50.58;102204.22;5070935;28;20060;-70